Accueil
METAR-TAF:

METAR-TAF

Aéroports :

Destin-Fort Walton Beach Airport

Destin, Floride, États-Unis

latitude: 30-23-36N, longitude: 086-28-03W, altitude: 6 m

Observation

Le bulletin a été fait il y a 48 minutes, à 22:53 UTC
Vent 3 kt de direction variable
Température 23°C
Humidité 50%
Pression 1013 hPa
Visibilité: 11.3 km
Ciel clair

METAR: KDTS 202253Z VRB03KT 7SM CLR 23/12 A2992 RMK AO2 SLP132 T02280117

Heure: 18:41 (23:41 UTC)


TAF: absent

Observations et prévisions météorologiques de plus de 4000 aéroports (messages METAR et TAF).

Les stations disponibles sont représentées par des disques jaunes et rouges sur la carte.

Passer la souris dessus pour voir le nom de la station.

Cliquer dessus pour voir les observations et prévisions météorologiques.

Pour changer de carte: cliquez sur les boutons verts avec une croix noire pour zoomer, sur le bouton vert avec un tiret pour effectuer un zoom arrière, ou sur les flèches vertes pour les cartes adjacentes.


METAR-TAF: